sensor_id;sensor_type;location;lat;lon;timestamp;P1;durP1;ratioP1;P2;durP2;ratioP2
68821;SDS011;55834;50.870;4.606;2022-12-07T00:03:45;10.93;;;6.90;;
68821;SDS011;55834;50.870;4.606;2022-12-07T00:06:12;11.65;;;6.28;;
68821;SDS011;55834;50.870;4.606;2022-12-07T00:08:39;9.85;;;6.40;;
68821;SDS011;55834;50.870;4.606;2022-12-07T00:11:08;11.68;;;6.47;;
68821;SDS011;55834;50.870;4.606;2022-12-07T00:13:38;8.93;;;4.75;;
68821;SDS011;55834;50.870;4.606;2022-12-07T00:16:11;10.55;;;6.22;;
68821;SDS011;55834;50.870;4.606;2022-12-07T00:18:38;9.20;;;5.30;;
68821;SDS011;55834;50.870;4.606;2022-12-07T00:21:05;8.07;;;4.40;;
68821;SDS011;55834;50.870;4.606;2022-12-07T00:23:37;8.40;;;5.88;;
68821;SDS011;55834;50.870;4.606;2022-12-07T00:26:04;9.35;;;6.20;;
68821;SDS011;55834;50.870;4.606;2022-12-07T00:28:34;9.32;;;5.90;;
68821;SDS011;55834;50.870;4.606;2022-12-07T00:31:03;11.40;;;5.67;;
68821;SDS011;55834;50.870;4.606;2022-12-07T00:33:30;8.40;;;5.53;;
68821;SDS011;55834;50.870;4.606;2022-12-07T00:35:57;9.05;;;5.25;;
68821;SDS011;55834;50.870;4.606;2022-12-07T00:38:23;9.40;;;5.65;;
68821;SDS011;55834;50.870;4.606;2022-12-07T00:40:56;10.13;;;6.50;;
68821;SDS011;55834;50.870;4.606;2022-12-07T00:43:23;8.75;;;5.93;;
68821;SDS011;55834;50.870;4.606;2022-12-07T00:45:49;8.73;;;6.18;;
68821;SDS011;55834;50.870;4.606;2022-12-07T00:48:14;10.27;;;5.75;;
68821;SDS011;55834;50.870;4.606;2022-12-07T00:50:39;9.20;;;5.53;;
68821;SDS011;55834;50.870;4.606;2022-12-07T00:53:05;11.23;;;7.43;;
68821;SDS011;55834;50.870;4.606;2022-12-07T00:55:33;8.97;;;6.43;;
68821;SDS011;55834;50.870;4.606;2022-12-07T00:57:59;8.68;;;6.60;;
68821;SDS011;55834;50.870;4.606;2022-12-07T01:00:24;10.90;;;5.97;;
68821;SDS011;55834;50.870;4.606;2022-12-07T01:02:50;9.40;;;6.57;;
68821;SDS011;55834;50.870;4.606;2022-12-07T01:05:15;11.70;;;6.57;;
68821;SDS011;55834;50.870;4.606;2022-12-07T01:07:41;8.73;;;6.82;;
68821;SDS011;55834;50.870;4.606;2022-12-07T01:10:06;9.23;;;5.17;;
68821;SDS011;55834;50.870;4.606;2022-12-07T01:12:32;10.00;;;6.40;;
68821;SDS011;55834;50.870;4.606;2022-12-07T01:14:57;7.03;;;5.53;;
68821;SDS011;55834;50.870;4.606;2022-12-07T01:17:22;10.17;;;6.03;;
68821;SDS011;55834;50.870;4.606;2022-12-07T01:19:48;10.37;;;6.00;;
68821;SDS011;55834;50.870;4.606;2022-12-07T01:22:13;7.93;;;4.97;;
68821;SDS011;55834;50.870;4.606;2022-12-07T01:24:38;10.57;;;6.23;;
68821;SDS011;55834;50.870;4.606;2022-12-07T01:27:04;9.37;;;5.70;;
68821;SDS011;55834;50.870;4.606;2022-12-07T01:29:29;11.43;;;6.17;;
68821;SDS011;55834;50.870;4.606;2022-12-07T01:31:54;9.90;;;5.73;;
68821;SDS011;55834;50.870;4.606;2022-12-07T01:34:19;9.00;;;5.40;;
68821;SDS011;55834;50.870;4.606;2022-12-07T01:36:45;9.00;;;5.37;;
68821;SDS011;55834;50.870;4.606;2022-12-07T01:39:10;11.07;;;6.97;;
68821;SDS011;55834;50.870;4.606;2022-12-07T01:41:37;9.40;;;5.83;;
68821;SDS011;55834;50.870;4.606;2022-12-07T01:49:53;9.70;;;6.60;;
68821;SDS011;55834;50.870;4.606;2022-12-07T01:54:51;9.32;;;5.72;;
68821;SDS011;55834;50.870;4.606;2022-12-07T01:57:20;7.80;;;5.90;;
68821;SDS011;55834;50.870;4.606;2022-12-07T01:59:47;11.20;;;5.68;;
68821;SDS011;55834;50.870;4.606;2022-12-07T02:02:20;8.35;;;6.05;;
68821;SDS011;55834;50.870;4.606;2022-12-07T02:04:51;9.82;;;6.68;;
68821;SDS011;55834;50.870;4.606;2022-12-07T02:07:18;10.85;;;5.90;;
68821;SDS011;55834;50.870;4.606;2022-12-07T02:09:45;10.95;;;7.57;;
68821;SDS011;55834;50.870;4.606;2022-12-07T02:12:10;9.10;;;6.43;;
68821;SDS011;55834;50.870;4.606;2022-12-07T02:14:36;11.48;;;6.45;;
68821;SDS011;55834;50.870;4.606;2022-12-07T02:17:04;8.10;;;6.22;;
68821;SDS011;55834;50.870;4.606;2022-12-07T02:30:40;10.13;;;6.33;;
68821;SDS011;55834;50.870;4.606;2022-12-07T02:33:16;10.32;;;6.38;;
68821;SDS011;55834;50.870;4.606;2022-12-07T02:38:24;9.70;;;5.78;;
68821;SDS011;55834;50.870;4.606;2022-12-07T02:43:28;9.10;;;6.13;;
68821;SDS011;55834;50.870;4.606;2022-12-07T02:46:01;11.63;;;5.38;;
68821;SDS011;55834;50.870;4.606;2022-12-07T02:48:32;12.93;;;6.43;;
68821;SDS011;55834;50.870;4.606;2022-12-07T02:50:58;8.50;;;5.95;;
68821;SDS011;55834;50.870;4.606;2022-12-07T02:53:31;12.03;;;6.20;;
68821;SDS011;55834;50.870;4.606;2022-12-07T02:56:03;10.10;;;5.72;;
68821;SDS011;55834;50.870;4.606;2022-12-07T02:58:46;7.70;;;5.15;;
68821;SDS011;55834;50.870;4.606;2022-12-07T03:01:41;8.60;;;5.25;;
68821;SDS011;55834;50.870;4.606;2022-12-07T03:07:21;9.77;;;6.15;;
68821;SDS011;55834;50.870;4.606;2022-12-07T03:09:54;11.38;;;6.65;;
68821;SDS011;55834;50.870;4.606;2022-12-07T03:15:22;10.60;;;6.25;;
68821;SDS011;55834;50.870;4.606;2022-12-07T03:17:52;9.65;;;6.05;;
68821;SDS011;55834;50.870;4.606;2022-12-07T03:20:21;8.90;;;5.35;;
68821;SDS011;55834;50.870;4.606;2022-12-07T03:22:48;9.38;;;5.85;;
68821;SDS011;55834;50.870;4.606;2022-12-07T03:25:16;9.00;;;6.07;;
68821;SDS011;55834;50.870;4.606;2022-12-07T03:27:53;9.30;;;4.93;;
68821;SDS011;55834;50.870;4.606;2022-12-07T03:30:22;6.55;;;4.85;;
68821;SDS011;55834;50.870;4.606;2022-12-07T03:35:43;8.50;;;5.40;;
68821;SDS011;55834;50.870;4.606;2022-12-07T03:38:17;6.18;;;5.07;;
68821;SDS011;55834;50.870;4.606;2022-12-07T03:40:50;9.80;;;5.00;;
68821;SDS011;55834;50.870;4.606;2022-12-07T03:43:23;9.73;;;5.45;;
68821;SDS011;55834;50.870;4.606;2022-12-07T03:45:53;7.10;;;5.55;;
68821;SDS011;55834;50.870;4.606;2022-12-07T03:48:35;13.63;;;5.72;;
68821;SDS011;55834;50.870;4.606;2022-12-07T03:53:39;10.13;;;5.57;;
68821;SDS011;55834;50.870;4.606;2022-12-07T03:56:25;5.47;;;3.78;;
68821;SDS011;55834;50.870;4.606;2022-12-07T03:58:53;6.28;;;4.90;;
68821;SDS011;55834;50.870;4.606;2022-12-07T04:01:19;6.75;;;4.18;;
68821;SDS011;55834;50.870;4.606;2022-12-07T04:03:44;7.60;;;4.47;;
68821;SDS011;55834;50.870;4.606;2022-12-07T04:06:09;7.13;;;4.30;;
68821;SDS011;55834;50.870;4.606;2022-12-07T04:08:35;7.70;;;4.28;;
68821;SDS011;55834;50.870;4.606;2022-12-07T04:11:01;7.60;;;4.03;;
68821;SDS011;55834;50.870;4.606;2022-12-07T04:13:26;6.85;;;5.18;;
68821;SDS011;55834;50.870;4.606;2022-12-07T04:15:52;6.30;;;4.32;;
68821;SDS011;55834;50.870;4.606;2022-12-07T04:18:17;7.10;;;3.73;;
68821;SDS011;55834;50.870;4.606;2022-12-07T04:20:42;9.27;;;4.60;;
68821;SDS011;55834;50.870;4.606;2022-12-07T04:23:07;5.43;;;3.90;;
68821;SDS011;55834;50.870;4.606;2022-12-07T04:25:33;4.90;;;3.60;;
68821;SDS011;55834;50.870;4.606;2022-12-07T04:27:58;6.13;;;3.57;;
68821;SDS011;55834;50.870;4.606;2022-12-07T04:30:24;7.75;;;4.55;;
68821;SDS011;55834;50.870;4.606;2022-12-07T04:32:49;5.67;;;3.03;;
68821;SDS011;55834;50.870;4.606;2022-12-07T04:35:14;6.27;;;3.80;;
68821;SDS011;55834;50.870;4.606;2022-12-07T04:37:40;6.57;;;3.78;;
68821;SDS011;55834;50.870;4.606;2022-12-07T04:40:07;7.50;;;4.85;;
68821;SDS011;55834;50.870;4.606;2022-12-07T04:42:35;4.75;;;3.25;;
68821;SDS011;55834;50.870;4.606;2022-12-07T04:45:01;7.97;;;3.83;;
68821;SDS011;55834;50.870;4.606;2022-12-07T04:47:26;8.48;;;4.53;;
68821;SDS011;55834;50.870;4.606;2022-12-07T04:49:52;6.77;;;3.90;;
68821;SDS011;55834;50.870;4.606;2022-12-07T04:52:17;7.53;;;3.80;;
68821;SDS011;55834;50.870;4.606;2022-12-07T04:54:42;6.60;;;4.33;;
68821;SDS011;55834;50.870;4.606;2022-12-07T04:57:07;6.87;;;4.43;;
68821;SDS011;55834;50.870;4.606;2022-12-07T04:59:33;5.53;;;3.77;;
68821;SDS011;55834;50.870;4.606;2022-12-07T05:01:58;8.03;;;5.43;;
68821;SDS011;55834;50.870;4.606;2022-12-07T05:04:23;9.50;;;5.60;;
68821;SDS011;55834;50.870;4.606;2022-12-07T05:06:49;8.60;;;3.77;;
68821;SDS011;55834;50.870;4.606;2022-12-07T05:09:14;5.33;;;3.57;;
68821;SDS011;55834;50.870;4.606;2022-12-07T05:11:39;8.67;;;4.43;;
68821;SDS011;55834;50.870;4.606;2022-12-07T05:16:38;6.35;;;3.70;;
68821;SDS011;55834;50.870;4.606;2022-12-07T05:19:04;5.35;;;3.35;;
68821;SDS011;55834;50.870;4.606;2022-12-07T05:21:30;6.38;;;4.65;;
68821;SDS011;55834;50.870;4.606;2022-12-07T05:23:55;5.50;;;3.87;;
68821;SDS011;55834;50.870;4.606;2022-12-07T05:26:20;9.18;;;4.47;;
68821;SDS011;55834;50.870;4.606;2022-12-07T05:28:49;5.00;;;4.03;;
68821;SDS011;55834;50.870;4.606;2022-12-07T05:31:15;12.82;;;4.95;;
68821;SDS011;55834;50.870;4.606;2022-12-07T05:33:40;7.27;;;3.37;;
68821;SDS011;55834;50.870;4.606;2022-12-07T05:36:06;10.57;;;4.80;;
68821;SDS011;55834;50.870;4.606;2022-12-07T05:38:32;7.78;;;4.43;;
68821;SDS011;55834;50.870;4.606;2022-12-07T05:41:04;5.57;;;4.13;;
68821;SDS011;55834;50.870;4.606;2022-12-07T05:43:31;8.95;;;4.55;;
68821;SDS011;55834;50.870;4.606;2022-12-07T05:45:57;4.35;;;3.95;;
68821;SDS011;55834;50.870;4.606;2022-12-07T05:48:22;9.52;;;4.32;;
68821;SDS011;55834;50.870;4.606;2022-12-07T05:50:48;5.15;;;4.25;;
68821;SDS011;55834;50.870;4.606;2022-12-07T05:53:14;9.35;;;4.70;;
68821;SDS011;55834;50.870;4.606;2022-12-07T05:55:41;5.78;;;4.60;;
68821;SDS011;55834;50.870;4.606;2022-12-07T05:58:06;6.20;;;4.30;;
68821;SDS011;55834;50.870;4.606;2022-12-07T06:00:50;8.10;;;5.05;;
68821;SDS011;55834;50.870;4.606;2022-12-07T06:03:16;7.50;;;4.63;;
68821;SDS011;55834;50.870;4.606;2022-12-07T06:05:41;7.53;;;4.50;;
68821;SDS011;55834;50.870;4.606;2022-12-07T06:08:07;8.00;;;4.72;;
68821;SDS011;55834;50.870;4.606;2022-12-07T06:10:32;6.95;;;5.25;;
68821;SDS011;55834;50.870;4.606;2022-12-07T06:12:58;7.70;;;5.00;;
68821;SDS011;55834;50.870;4.606;2022-12-07T06:15:23;9.13;;;5.20;;
68821;SDS011;55834;50.870;4.606;2022-12-07T06:17:48;10.13;;;5.13;;
68821;SDS011;55834;50.870;4.606;2022-12-07T06:20:14;8.40;;;4.63;;
68821;SDS011;55834;50.870;4.606;2022-12-07T06:22:39;7.28;;;5.00;;
68821;SDS011;55834;50.870;4.606;2022-12-07T06:25:05;6.97;;;4.68;;
68821;SDS011;55834;50.870;4.606;2022-12-07T06:27:30;6.68;;;4.05;;
68821;SDS011;55834;50.870;4.606;2022-12-07T06:29:57;8.55;;;4.80;;
68821;SDS011;55834;50.870;4.606;2022-12-07T06:32:23;6.70;;;3.42;;
68821;SDS011;55834;50.870;4.606;2022-12-07T06:34:48;5.80;;;4.10;;
68821;SDS011;55834;50.870;4.606;2022-12-07T06:37:13;8.50;;;4.30;;
68821;SDS011;55834;50.870;4.606;2022-12-07T06:39:39;7.07;;;3.77;;
68821;SDS011;55834;50.870;4.606;2022-12-07T06:42:04;5.97;;;3.13;;
68821;SDS011;55834;50.870;4.606;2022-12-07T06:44:29;5.37;;;3.67;;
68821;SDS011;55834;50.870;4.606;2022-12-07T06:46:54;8.50;;;3.77;;
68821;SDS011;55834;50.870;4.606;2022-12-07T06:49:20;5.50;;;3.03;;
68821;SDS011;55834;50.870;4.606;2022-12-07T06:51:45;5.03;;;3.65;;
68821;SDS011;55834;50.870;4.606;2022-12-07T06:54:12;7.47;;;4.97;;
68821;SDS011;55834;50.870;4.606;2022-12-07T06:56:38;6.80;;;4.03;;
68821;SDS011;55834;50.870;4.606;2022-12-07T06:59:04;9.25;;;5.10;;
68821;SDS011;55834;50.870;4.606;2022-12-07T07:01:31;6.78;;;3.90;;
68821;SDS011;55834;50.870;4.606;2022-12-07T07:03:57;8.00;;;4.38;;
68821;SDS011;55834;50.870;4.606;2022-12-07T07:06:22;4.00;;;2.90;;
68821;SDS011;55834;50.870;4.606;2022-12-07T07:08:49;8.57;;;2.90;;
68821;SDS011;55834;50.870;4.606;2022-12-07T07:11:14;7.20;;;4.30;;
68821;SDS011;55834;50.870;4.606;2022-12-07T07:13:39;8.20;;;4.63;;
68821;SDS011;55834;50.870;4.606;2022-12-07T07:16:05;12.63;;;7.23;;
68821;SDS011;55834;50.870;4.606;2022-12-07T07:18:31;6.72;;;4.13;;
68821;SDS011;55834;50.870;4.606;2022-12-07T07:20:57;7.75;;;4.60;;
68821;SDS011;55834;50.870;4.606;2022-12-07T07:23:22;8.20;;;5.90;;
68821;SDS011;55834;50.870;4.606;2022-12-07T07:25:48;16.23;;;7.45;;
68821;SDS011;55834;50.870;4.606;2022-12-07T07:28:14;15.07;;;7.07;;
68821;SDS011;55834;50.870;4.606;2022-12-07T07:30:40;8.32;;;5.55;;
68821;SDS011;55834;50.870;4.606;2022-12-07T07:33:06;8.02;;;5.32;;
68821;SDS011;55834;50.870;4.606;2022-12-07T07:35:32;8.95;;;5.55;;
68821;SDS011;55834;50.870;4.606;2022-12-07T07:37:58;10.55;;;5.25;;
68821;SDS011;55834;50.870;4.606;2022-12-07T07:40:24;7.70;;;4.93;;
68821;SDS011;55834;50.870;4.606;2022-12-07T07:42:51;6.40;;;4.28;;
68821;SDS011;55834;50.870;4.606;2022-12-07T07:45:18;10.13;;;4.68;;
68821;SDS011;55834;50.870;4.606;2022-12-07T07:47:44;7.72;;;4.25;;
68821;SDS011;55834;50.870;4.606;2022-12-07T07:50:10;9.15;;;5.10;;
68821;SDS011;55834;50.870;4.606;2022-12-07T07:52:35;10.45;;;5.57;;
68821;SDS011;55834;50.870;4.606;2022-12-07T07:55:01;7.90;;;4.97;;
68821;SDS011;55834;50.870;4.606;2022-12-07T07:57:26;6.22;;;4.78;;
68821;SDS011;55834;50.870;4.606;2022-12-07T07:59:52;7.25;;;3.22;;
68821;SDS011;55834;50.870;4.606;2022-12-07T08:02:18;6.80;;;3.40;;
68821;SDS011;55834;50.870;4.606;2022-12-07T08:04:44;7.38;;;3.83;;
68821;SDS011;55834;50.870;4.606;2022-12-07T08:07:11;4.72;;;3.13;;
68821;SDS011;55834;50.870;4.606;2022-12-07T08:09:37;8.20;;;4.18;;
68821;SDS011;55834;50.870;4.606;2022-12-07T08:12:03;9.55;;;3.25;;
68821;SDS011;55834;50.870;4.606;2022-12-07T08:14:28;5.85;;;3.88;;
68821;SDS011;55834;50.870;4.606;2022-12-07T08:16:54;6.95;;;3.72;;
68821;SDS011;55834;50.870;4.606;2022-12-07T08:19:19;5.07;;;3.15;;
68821;SDS011;55834;50.870;4.606;2022-12-07T08:21:45;6.65;;;3.70;;
68821;SDS011;55834;50.870;4.606;2022-12-07T08:24:11;4.15;;;3.15;;
68821;SDS011;55834;50.870;4.606;2022-12-07T08:26:36;9.33;;;3.23;;
68821;SDS011;55834;50.870;4.606;2022-12-07T08:29:02;7.40;;;3.40;;
68821;SDS011;55834;50.870;4.606;2022-12-07T08:31:27;5.03;;;3.45;;
68821;SDS011;55834;50.870;4.606;2022-12-07T08:33:53;7.32;;;4.38;;
68821;SDS011;55834;50.870;4.606;2022-12-07T08:36:19;10.73;;;6.47;;
68821;SDS011;55834;50.870;4.606;2022-12-07T08:38:46;9.48;;;5.05;;
68821;SDS011;55834;50.870;4.606;2022-12-07T08:41:12;9.25;;;7.10;;
68821;SDS011;55834;50.870;4.606;2022-12-07T08:43:37;9.80;;;5.73;;
68821;SDS011;55834;50.870;4.606;2022-12-07T08:48:34;10.20;;;7.18;;
68821;SDS011;55834;50.870;4.606;2022-12-07T08:51:03;10.40;;;6.22;;
68821;SDS011;55834;50.870;4.606;2022-12-07T08:53:29;7.95;;;5.63;;
68821;SDS011;55834;50.870;4.606;2022-12-07T08:55:55;7.53;;;5.75;;
68821;SDS011;55834;50.870;4.606;2022-12-07T08:58:22;12.13;;;5.55;;
68821;SDS011;55834;50.870;4.606;2022-12-07T09:00:47;5.57;;;4.30;;
68821;SDS011;55834;50.870;4.606;2022-12-07T09:03:13;8.67;;;4.80;;
68821;SDS011;55834;50.870;4.606;2022-12-07T09:05:38;6.00;;;5.33;;
68821;SDS011;55834;50.870;4.606;2022-12-07T09:08:03;9.02;;;6.38;;
68821;SDS011;55834;50.870;4.606;2022-12-07T09:10:29;8.30;;;3.90;;
68821;SDS011;55834;50.870;4.606;2022-12-07T09:12:55;5.93;;;3.25;;
68821;SDS011;55834;50.870;4.606;2022-12-07T09:15:20;6.05;;;3.97;;
68821;SDS011;55834;50.870;4.606;2022-12-07T09:17:46;7.80;;;4.43;;
68821;SDS011;55834;50.870;4.606;2022-12-07T09:20:11;6.77;;;4.07;;
68821;SDS011;55834;50.870;4.606;2022-12-07T09:22:37;6.50;;;3.92;;
68821;SDS011;55834;50.870;4.606;2022-12-07T09:25:03;9.43;;;3.60;;
68821;SDS011;55834;50.870;4.606;2022-12-07T09:27:29;5.55;;;3.30;;
68821;SDS011;55834;50.870;4.606;2022-12-07T09:29:54;6.93;;;3.77;;
68821;SDS011;55834;50.870;4.606;2022-12-07T09:32:21;10.02;;;3.55;;
68821;SDS011;55834;50.870;4.606;2022-12-07T09:34:46;6.45;;;4.38;;
68821;SDS011;55834;50.870;4.606;2022-12-07T09:37:12;5.82;;;4.30;;
68821;SDS011;55834;50.870;4.606;2022-12-07T09:39:38;12.83;;;5.07;;
68821;SDS011;55834;50.870;4.606;2022-12-07T09:42:05;18.27;;;4.18;;
68821;SDS011;55834;50.870;4.606;2022-12-07T09:44:32;5.30;;;3.35;;
68821;SDS011;55834;50.870;4.606;2022-12-07T09:46:58;10.13;;;3.95;;
68821;SDS011;55834;50.870;4.606;2022-12-07T09:49:24;6.32;;;3.60;;
68821;SDS011;55834;50.870;4.606;2022-12-07T09:52:03;8.45;;;4.85;;
68821;SDS011;55834;50.870;4.606;2022-12-07T09:54:45;8.35;;;5.43;;
68821;SDS011;55834;50.870;4.606;2022-12-07T09:57:13;8.18;;;5.10;;
68821;SDS011;55834;50.870;4.606;2022-12-07T09:59:38;9.25;;;4.05;;
68821;SDS011;55834;50.870;4.606;2022-12-07T10:02:25;8.45;;;3.80;;
68821;SDS011;55834;50.870;4.606;2022-12-07T10:04:59;9.13;;;5.07;;
68821;SDS011;55834;50.870;4.606;2022-12-07T10:07:25;8.90;;;4.20;;
68821;SDS011;55834;50.870;4.606;2022-12-07T10:09:50;5.33;;;3.57;;
68821;SDS011;55834;50.870;4.606;2022-12-07T10:12:15;6.67;;;3.57;;
68821;SDS011;55834;50.870;4.606;2022-12-07T10:17:36;4.68;;;3.80;;
68821;SDS011;55834;50.870;4.606;2022-12-07T10:22:38;5.68;;;3.55;;
68821;SDS011;55834;50.870;4.606;2022-12-07T10:25:20;5.38;;;2.42;;
68821;SDS011;55834;50.870;4.606;2022-12-07T10:27:59;5.00;;;2.13;;
68821;SDS011;55834;50.870;4.606;2022-12-07T10:35:55;8.33;;;3.00;;
68821;SDS011;55834;50.870;4.606;2022-12-07T10:38:21;8.68;;;3.83;;
68821;SDS011;55834;50.870;4.606;2022-12-07T10:40:46;6.77;;;3.37;;
68821;SDS011;55834;50.870;4.606;2022-12-07T10:48:38;4.95;;;3.33;;
68821;SDS011;55834;50.870;4.606;2022-12-07T10:56:36;8.55;;;3.90;;
68821;SDS011;55834;50.870;4.606;2022-12-07T11:12:30;6.70;;;3.25;;
68821;SDS011;55834;50.870;4.606;2022-12-07T11:18:00;4.03;;;2.97;;
68821;SDS011;55834;50.870;4.606;2022-12-07T11:20:44;4.75;;;3.28;;
68821;SDS011;55834;50.870;4.606;2022-12-07T11:26:08;7.35;;;3.75;;
68821;SDS011;55834;50.870;4.606;2022-12-07T11:31:28;6.50;;;4.17;;
68821;SDS011;55834;50.870;4.606;2022-12-07T11:34:25;5.80;;;4.13;;
68821;SDS011;55834;50.870;4.606;2022-12-07T11:36:52;7.13;;;3.67;;
68821;SDS011;55834;50.870;4.606;2022-12-07T11:41:48;5.78;;;3.15;;
68821;SDS011;55834;50.870;4.606;2022-12-07T11:46:55;6.68;;;3.80;;
68821;SDS011;55834;50.870;4.606;2022-12-07T11:52:25;10.13;;;3.17;;
68821;SDS011;55834;50.870;4.606;2022-12-07T11:55:16;6.85;;;3.13;;
68821;SDS011;55834;50.870;4.606;2022-12-07T11:57:51;7.22;;;3.17;;
68821;SDS011;55834;50.870;4.606;2022-12-07T12:00:22;6.47;;;3.17;;
68821;SDS011;55834;50.870;4.606;2022-12-07T12:02:56;4.67;;;3.07;;
68821;SDS011;55834;50.870;4.606;2022-12-07T12:05:26;6.47;;;3.75;;
68821;SDS011;55834;50.870;4.606;2022-12-07T12:08:01;4.15;;;3.13;;
68821;SDS011;55834;50.870;4.606;2022-12-07T12:11:00;10.93;;;3.75;;
68821;SDS011;55834;50.870;4.606;2022-12-07T12:13:36;9.90;;;4.22;;
68821;SDS011;55834;50.870;4.606;2022-12-07T12:21:22;5.30;;;2.60;;
68821;SDS011;55834;50.870;4.606;2022-12-07T12:23:57;4.32;;;2.58;;
68821;SDS011;55834;50.870;4.606;2022-12-07T12:26:27;6.97;;;3.33;;
68821;SDS011;55834;50.870;4.606;2022-12-07T12:28:59;6.40;;;2.95;;
68821;SDS011;55834;50.870;4.606;2022-12-07T12:31:35;6.47;;;2.47;;
68821;SDS011;55834;50.870;4.606;2022-12-07T12:36:49;5.90;;;3.10;;
68821;SDS011;55834;50.870;4.606;2022-12-07T12:39:15;3.53;;;2.33;;
68821;SDS011;55834;50.870;4.606;2022-12-07T12:49:42;4.45;;;2.08;;
68821;SDS011;55834;50.870;4.606;2022-12-07T12:54:40;4.68;;;2.00;;
68821;SDS011;55834;50.870;4.606;2022-12-07T12:57:27;4.30;;;2.00;;
68821;SDS011;55834;50.870;4.606;2022-12-07T13:23:33;7.82;;;1.80;;
68821;SDS011;55834;50.870;4.606;2022-12-07T13:28:36;2.45;;;1.25;;
68821;SDS011;55834;50.870;4.606;2022-12-07T13:31:13;8.68;;;2.45;;
68821;SDS011;55834;50.870;4.606;2022-12-07T13:33:44;4.65;;;1.92;;
68821;SDS011;55834;50.870;4.606;2022-12-07T13:36:17;4.63;;;2.05;;
68821;SDS011;55834;50.870;4.606;2022-12-07T13:38:52;6.07;;;1.92;;
68821;SDS011;55834;50.870;4.606;2022-12-07T13:41:41;1.92;;;1.15;;
68821;SDS011;55834;50.870;4.606;2022-12-07T13:44:16;3.92;;;1.58;;
68821;SDS011;55834;50.870;4.606;2022-12-07T13:49:30;2.03;;;1.20;;
68821;SDS011;55834;50.870;4.606;2022-12-07T13:52:08;1.45;;;1.20;;
68821;SDS011;55834;50.870;4.606;2022-12-07T13:54:47;2.10;;;1.27;;
68821;SDS011;55834;50.870;4.606;2022-12-07T13:57:31;3.70;;;1.20;;
68821;SDS011;55834;50.870;4.606;2022-12-07T13:59:59;4.40;;;1.17;;
68821;SDS011;55834;50.870;4.606;2022-12-07T14:02:27;3.90;;;1.48;;
68821;SDS011;55834;50.870;4.606;2022-12-07T14:05:23;3.40;;;1.48;;
68821;SDS011;55834;50.870;4.606;2022-12-07T14:07:55;2.05;;;1.00;;
68821;SDS011;55834;50.870;4.606;2022-12-07T14:10:36;4.20;;;1.20;;
68821;SDS011;55834;50.870;4.606;2022-12-07T14:16:00;3.67;;;1.55;;
68821;SDS011;55834;50.870;4.606;2022-12-07T14:18:40;1.38;;;1.23;;
68821;SDS011;55834;50.870;4.606;2022-12-07T14:23:37;4.75;;;1.40;;
68821;SDS011;55834;50.870;4.606;2022-12-07T14:28:40;4.00;;;1.35;;
68821;SDS011;55834;50.870;4.606;2022-12-07T14:31:10;2.83;;;1.40;;
68821;SDS011;55834;50.870;4.606;2022-12-07T14:33:36;2.42;;;1.95;;
68821;SDS011;55834;50.870;4.606;2022-12-07T14:36:02;1.67;;;1.42;;
68821;SDS011;55834;50.870;4.606;2022-12-07T14:38:27;2.40;;;1.48;;
68821;SDS011;55834;50.870;4.606;2022-12-07T14:40:53;1.97;;;1.73;;
68821;SDS011;55834;50.870;4.606;2022-12-07T14:43:19;1.52;;;1.25;;
68821;SDS011;55834;50.870;4.606;2022-12-07T14:45:45;5.38;;;1.08;;
68821;SDS011;55834;50.870;4.606;2022-12-07T14:48:11;1.63;;;1.10;;
68821;SDS011;55834;50.870;4.606;2022-12-07T14:50:40;1.55;;;1.35;;
68821;SDS011;55834;50.870;4.606;2022-12-07T14:53:12;2.30;;;1.65;;
68821;SDS011;55834;50.870;4.606;2022-12-07T14:55:40;2.03;;;1.80;;
68821;SDS011;55834;50.870;4.606;2022-12-07T14:58:06;1.30;;;1.20;;
68821;SDS011;55834;50.870;4.606;2022-12-07T15:00:35;3.35;;;2.00;;
68821;SDS011;55834;50.870;4.606;2022-12-07T15:03:00;1.97;;;1.40;;
68821;SDS011;55834;50.870;4.606;2022-12-07T15:05:26;1.90;;;1.60;;
68821;SDS011;55834;50.870;4.606;2022-12-07T15:07:51;1.90;;;1.80;;
68821;SDS011;55834;50.870;4.606;2022-12-07T15:10:18;1.73;;;1.63;;
68821;SDS011;55834;50.870;4.606;2022-12-07T15:12:44;2.50;;;1.90;;
68821;SDS011;55834;50.870;4.606;2022-12-07T15:15:09;2.58;;;2.25;;
68821;SDS011;55834;50.870;4.606;2022-12-07T15:17:36;3.92;;;1.80;;
68821;SDS011;55834;50.870;4.606;2022-12-07T15:20:02;2.67;;;1.90;;
68821;SDS011;55834;50.870;4.606;2022-12-07T15:22:28;1.73;;;1.50;;
68821;SDS011;55834;50.870;4.606;2022-12-07T15:24:56;2.22;;;1.50;;
68821;SDS011;55834;50.870;4.606;2022-12-07T15:27:21;3.35;;;1.70;;
68821;SDS011;55834;50.870;4.606;2022-12-07T15:29:47;2.30;;;2.10;;
68821;SDS011;55834;50.870;4.606;2022-12-07T15:32:12;5.17;;;2.57;;
68821;SDS011;55834;50.870;4.606;2022-12-07T15:34:37;3.43;;;2.30;;
68821;SDS011;55834;50.870;4.606;2022-12-07T15:37:02;2.60;;;2.40;;
68821;SDS011;55834;50.870;4.606;2022-12-07T15:39:28;4.82;;;2.70;;
68821;SDS011;55834;50.870;4.606;2022-12-07T15:41:53;2.17;;;1.97;;
68821;SDS011;55834;50.870;4.606;2022-12-07T15:44:19;2.70;;;2.00;;
68821;SDS011;55834;50.870;4.606;2022-12-07T15:47:03;3.22;;;2.20;;
68821;SDS011;55834;50.870;4.606;2022-12-07T15:49:32;3.72;;;2.20;;
68821;SDS011;55834;50.870;4.606;2022-12-07T15:51:57;3.20;;;2.38;;
68821;SDS011;55834;50.870;4.606;2022-12-07T15:56:50;5.00;;;2.15;;
68821;SDS011;55834;50.870;4.606;2022-12-07T15:59:15;3.20;;;2.33;;
68821;SDS011;55834;50.870;4.606;2022-12-07T16:01:41;9.95;;;2.80;;
68821;SDS011;55834;50.870;4.606;2022-12-07T16:04:06;4.33;;;1.90;;
68821;SDS011;55834;50.870;4.606;2022-12-07T16:06:32;4.05;;;2.92;;
68821;SDS011;55834;50.870;4.606;2022-12-07T16:08:58;15.88;;;8.25;;
68821;SDS011;55834;50.870;4.606;2022-12-07T16:11:24;23.83;;;11.13;;
68821;SDS011;55834;50.870;4.606;2022-12-07T16:13:49;8.43;;;5.00;;
68821;SDS011;55834;50.870;4.606;2022-12-07T16:16:16;7.75;;;4.18;;
68821;SDS011;55834;50.870;4.606;2022-12-07T16:18:42;33.95;;;10.25;;
68821;SDS011;55834;50.870;4.606;2022-12-07T16:21:09;13.40;;;5.45;;
68821;SDS011;55834;50.870;4.606;2022-12-07T16:23:34;4.30;;;3.03;;
68821;SDS011;55834;50.870;4.606;2022-12-07T16:26:07;4.72;;;2.58;;
68821;SDS011;55834;50.870;4.606;2022-12-07T16:28:35;6.35;;;2.60;;
68821;SDS011;55834;50.870;4.606;2022-12-07T16:31:02;6.35;;;2.70;;
68821;SDS011;55834;50.870;4.606;2022-12-07T16:33:29;3.90;;;2.70;;
68821;SDS011;55834;50.870;4.606;2022-12-07T16:35:54;6.17;;;2.57;;
68821;SDS011;55834;50.870;4.606;2022-12-07T16:38:19;5.63;;;2.20;;
68821;SDS011;55834;50.870;4.606;2022-12-07T16:40:46;4.30;;;3.30;;
68821;SDS011;55834;50.870;4.606;2022-12-07T16:43:12;3.85;;;2.28;;
68821;SDS011;55834;50.870;4.606;2022-12-07T16:45:38;6.07;;;3.20;;
68821;SDS011;55834;50.870;4.606;2022-12-07T16:48:03;9.17;;;3.03;;
68821;SDS011;55834;50.870;4.606;2022-12-07T16:50:29;5.88;;;3.10;;
68821;SDS011;55834;50.870;4.606;2022-12-07T16:52:54;8.67;;;3.47;;
68821;SDS011;55834;50.870;4.606;2022-12-07T16:55:19;5.27;;;2.53;;
68821;SDS011;55834;50.870;4.606;2022-12-07T16:57:45;6.23;;;2.60;;
68821;SDS011;55834;50.870;4.606;2022-12-07T17:00:10;5.63;;;2.87;;
68821;SDS011;55834;50.870;4.606;2022-12-07T17:02:36;4.57;;;3.30;;
68821;SDS011;55834;50.870;4.606;2022-12-07T17:05:01;2.67;;;1.53;;
68821;SDS011;55834;50.870;4.606;2022-12-07T17:07:26;4.35;;;2.58;;
68821;SDS011;55834;50.870;4.606;2022-12-07T17:09:52;4.63;;;2.40;;
68821;SDS011;55834;50.870;4.606;2022-12-07T17:12:18;2.65;;;2.30;;
68821;SDS011;55834;50.870;4.606;2022-12-07T17:14:43;3.10;;;1.73;;
68821;SDS011;55834;50.870;4.606;2022-12-07T17:17:27;5.10;;;2.72;;
68821;SDS011;55834;50.870;4.606;2022-12-07T17:19:52;4.13;;;2.27;;
68821;SDS011;55834;50.870;4.606;2022-12-07T17:22:18;4.47;;;2.13;;
68821;SDS011;55834;50.870;4.606;2022-12-07T17:24:43;3.13;;;2.50;;